sensor_id;sensor_type;location;lat;lon;timestamp;P1;durP1;ratioP1;P2;durP2;ratioP2
75787;SDS011;64406;50.024;14.492;2023-03-11T00:00:32;0.00;;;0.00;;
75787;SDS011;64406;50.024;14.492;2023-03-11T00:03:22;0.00;;;0.00;;
75787;SDS011;64406;50.024;14.492;2023-03-11T00:05:49;0.10;;;0.10;;
75787;SDS011;64406;50.024;14.492;2023-03-11T00:08:18;0.00;;;0.00;;
75787;SDS011;64406;50.024;14.492;2023-03-11T00:10:46;0.00;;;0.00;;
75787;SDS011;64406;50.024;14.492;2023-03-11T00:13:15;0.00;;;0.00;;
75787;SDS011;64406;50.024;14.492;2023-03-11T00:15:43;0.00;;;0.00;;
75787;SDS011;64406;50.024;14.492;2023-03-11T00:18:10;0.00;;;0.00;;
75787;SDS011;64406;50.024;14.492;2023-03-11T00:20:40;0.00;;;0.00;;
75787;SDS011;64406;50.024;14.492;2023-03-11T00:23:10;0.00;;;0.00;;
75787;SDS011;64406;50.024;14.492;2023-03-11T00:25:37;0.00;;;0.00;;
75787;SDS011;64406;50.024;14.492;2023-03-11T00:28:04;0.00;;;0.00;;
75787;SDS011;64406;50.024;14.492;2023-03-11T00:30:32;0.10;;;0.10;;
75787;SDS011;64406;50.024;14.492;2023-03-11T00:32:58;0.00;;;0.00;;
75787;SDS011;64406;50.024;14.492;2023-03-11T00:35:27;1.80;;;1.00;;
75787;SDS011;64406;50.024;14.492;2023-03-11T00:37:56;0.87;;;0.83;;
75787;SDS011;64406;50.024;14.492;2023-03-11T00:40:24;4.43;;;1.07;;
75787;SDS011;64406;50.024;14.492;2023-03-11T00:42:51;1.87;;;1.40;;
75787;SDS011;64406;50.024;14.492;2023-03-11T00:45:17;1.67;;;1.37;;
75787;SDS011;64406;50.024;14.492;2023-03-11T00:47:43;1.90;;;1.70;;
75787;SDS011;64406;50.024;14.492;2023-03-11T00:50:10;2.07;;;1.30;;
75787;SDS011;64406;50.024;14.492;2023-03-11T00:52:42;2.17;;;1.97;;
75787;SDS011;64406;50.024;14.492;2023-03-11T00:55:09;1.70;;;1.53;;
75787;SDS011;64406;50.024;14.492;2023-03-11T00:57:38;3.63;;;1.90;;
75787;SDS011;64406;50.024;14.492;2023-03-11T01:00:04;2.80;;;1.43;;
75787;SDS011;64406;50.024;14.492;2023-03-11T01:02:35;2.60;;;1.80;;
75787;SDS011;64406;50.024;14.492;2023-03-11T01:05:01;5.90;;;2.07;;
75787;SDS011;64406;50.024;14.492;2023-03-11T01:07:27;2.53;;;1.80;;
75787;SDS011;64406;50.024;14.492;2023-03-11T01:09:53;2.27;;;1.60;;
75787;SDS011;64406;50.024;14.492;2023-03-11T01:12:19;2.03;;;1.60;;
75787;SDS011;64406;50.024;14.492;2023-03-11T01:14:44;2.43;;;1.27;;
75787;SDS011;64406;50.024;14.492;2023-03-11T01:17:10;4.87;;;1.70;;
75787;SDS011;64406;50.024;14.492;2023-03-11T01:19:36;1.33;;;1.00;;
75787;SDS011;64406;50.024;14.492;2023-03-11T01:22:01;1.23;;;1.00;;
75787;SDS011;64406;50.024;14.492;2023-03-11T01:24:28;0.87;;;0.80;;
75787;SDS011;64406;50.024;14.492;2023-03-11T01:26:53;0.93;;;0.70;;
75787;SDS011;64406;50.024;14.492;2023-03-11T01:29:19;1.13;;;1.00;;
75787;SDS011;64406;50.024;14.492;2023-03-11T01:31:44;1.00;;;0.90;;
75787;SDS011;64406;50.024;14.492;2023-03-11T01:34:10;1.37;;;0.80;;
75787;SDS011;64406;50.024;14.492;2023-03-11T01:36:36;0.80;;;0.80;;
75787;SDS011;64406;50.024;14.492;2023-03-11T01:39:02;0.93;;;0.90;;
75787;SDS011;64406;50.024;14.492;2023-03-11T01:41:29;1.43;;;0.87;;
75787;SDS011;64406;50.024;14.492;2023-03-11T01:43:55;0.77;;;0.77;;
75787;SDS011;64406;50.024;14.492;2023-03-11T01:48:52;2.97;;;0.73;;
75787;SDS011;64406;50.024;14.492;2023-03-11T01:51:23;1.00;;;0.80;;
75787;SDS011;64406;50.024;14.492;2023-03-11T01:54:09;0.67;;;0.60;;
75787;SDS011;64406;50.024;14.492;2023-03-11T01:56:38;0.80;;;0.70;;
75787;SDS011;64406;50.024;14.492;2023-03-11T01:59:06;1.23;;;1.07;;
75787;SDS011;64406;50.024;14.492;2023-03-11T02:01:34;1.13;;;1.00;;
75787;SDS011;64406;50.024;14.492;2023-03-11T02:04:11;0.90;;;0.80;;
75787;SDS011;64406;50.024;14.492;2023-03-11T02:06:38;1.00;;;0.90;;
75787;SDS011;64406;50.024;14.492;2023-03-11T02:09:04;1.97;;;1.13;;
75787;SDS011;64406;50.024;14.492;2023-03-11T02:11:29;1.77;;;1.00;;
75787;SDS011;64406;50.024;14.492;2023-03-11T02:13:57;1.57;;;0.87;;
75787;SDS011;64406;50.024;14.492;2023-03-11T02:16:24;1.30;;;0.70;;
75787;SDS011;64406;50.024;14.492;2023-03-11T02:18:51;1.47;;;1.00;;
75787;SDS011;64406;50.024;14.492;2023-03-11T02:21:29;1.70;;;1.23;;
75787;SDS011;64406;50.024;14.492;2023-03-11T02:31:36;2.50;;;1.27;;
75787;SDS011;64406;50.024;14.492;2023-03-11T02:34:04;2.00;;;1.40;;
75787;SDS011;64406;50.024;14.492;2023-03-11T02:36:40;3.27;;;1.77;;
75787;SDS011;64406;50.024;14.492;2023-03-11T02:39:08;2.60;;;1.70;;
75787;SDS011;64406;50.024;14.492;2023-03-11T02:41:35;2.50;;;1.50;;
75787;SDS011;64406;50.024;14.492;2023-03-11T02:44:06;2.10;;;1.67;;
75787;SDS011;64406;50.024;14.492;2023-03-11T02:46:35;1.50;;;1.40;;
75787;SDS011;64406;50.024;14.492;2023-03-11T02:49:03;5.27;;;1.70;;
75787;SDS011;64406;50.024;14.492;2023-03-11T02:51:31;2.03;;;1.60;;
75787;SDS011;64406;50.024;14.492;2023-03-11T02:53:57;2.33;;;1.50;;
75787;SDS011;64406;50.024;14.492;2023-03-11T02:56:27;1.83;;;1.60;;
75787;SDS011;64406;50.024;14.492;2023-03-11T02:58:53;2.33;;;1.53;;
75787;SDS011;64406;50.024;14.492;2023-03-11T03:01:18;3.03;;;1.77;;
75787;SDS011;64406;50.024;14.492;2023-03-11T03:03:44;1.93;;;1.30;;
75787;SDS011;64406;50.024;14.492;2023-03-11T03:06:10;2.33;;;1.50;;
75787;SDS011;64406;50.024;14.492;2023-03-11T03:08:36;1.43;;;1.27;;
75787;SDS011;64406;50.024;14.492;2023-03-11T03:11:02;2.27;;;1.40;;
75787;SDS011;64406;50.024;14.492;2023-03-11T03:13:27;2.47;;;1.57;;
75787;SDS011;64406;50.024;14.492;2023-03-11T03:15:53;2.07;;;1.40;;
75787;SDS011;64406;50.024;14.492;2023-03-11T03:18:20;3.37;;;2.03;;
75787;SDS011;64406;50.024;14.492;2023-03-11T03:20:46;2.93;;;1.87;;
75787;SDS011;64406;50.024;14.492;2023-03-11T03:23:11;3.07;;;1.93;;
75787;SDS011;64406;50.024;14.492;2023-03-11T03:25:40;3.10;;;1.90;;
75787;SDS011;64406;50.024;14.492;2023-03-11T03:28:06;2.43;;;1.50;;
75787;SDS011;64406;50.024;14.492;2023-03-11T03:30:32;2.03;;;1.47;;
75787;SDS011;64406;50.024;14.492;2023-03-11T03:32:58;2.30;;;1.50;;
75787;SDS011;64406;50.024;14.492;2023-03-11T03:35:23;2.77;;;1.60;;
75787;SDS011;64406;50.024;14.492;2023-03-11T03:37:49;1.43;;;1.17;;
75787;SDS011;64406;50.024;14.492;2023-03-11T03:40:15;1.70;;;1.10;;
75787;SDS011;64406;50.024;14.492;2023-03-11T03:42:41;1.93;;;1.17;;
75787;SDS011;64406;50.024;14.492;2023-03-11T03:45:07;1.80;;;1.47;;
75787;SDS011;64406;50.024;14.492;2023-03-11T03:47:36;1.30;;;1.03;;
75787;SDS011;64406;50.024;14.492;2023-03-11T03:50:03;1.33;;;1.10;;
75787;SDS011;64406;50.024;14.492;2023-03-11T03:52:31;1.50;;;1.10;;
75787;SDS011;64406;50.024;14.492;2023-03-11T03:54:57;1.37;;;1.07;;
75787;SDS011;64406;50.024;14.492;2023-03-11T03:57:22;1.37;;;1.10;;
75787;SDS011;64406;50.024;14.492;2023-03-11T03:59:48;1.50;;;1.00;;
75787;SDS011;64406;50.024;14.492;2023-03-11T04:02:14;1.00;;;0.90;;
75787;SDS011;64406;50.024;14.492;2023-03-11T04:04:39;1.40;;;1.00;;
75787;SDS011;64406;50.024;14.492;2023-03-11T04:07:05;1.13;;;0.97;;
75787;SDS011;64406;50.024;14.492;2023-03-11T04:09:31;1.63;;;1.27;;
75787;SDS011;64406;50.024;14.492;2023-03-11T04:11:58;0.80;;;0.80;;
75787;SDS011;64406;50.024;14.492;2023-03-11T04:14:24;1.33;;;1.07;;
75787;SDS011;64406;50.024;14.492;2023-03-11T04:16:50;1.10;;;0.97;;
75787;SDS011;64406;50.024;14.492;2023-03-11T04:19:16;1.30;;;1.10;;
75787;SDS011;64406;50.024;14.492;2023-03-11T04:21:41;1.20;;;1.00;;
75787;SDS011;64406;50.024;14.492;2023-03-11T04:24:09;1.67;;;1.17;;
75787;SDS011;64406;50.024;14.492;2023-03-11T04:26:36;2.23;;;1.00;;
75787;SDS011;64406;50.024;14.492;2023-03-11T04:29:01;1.20;;;1.00;;
75787;SDS011;64406;50.024;14.492;2023-03-11T04:31:27;1.23;;;1.10;;
75787;SDS011;64406;50.024;14.492;2023-03-11T04:33:53;1.83;;;1.13;;
75787;SDS011;64406;50.024;14.492;2023-03-11T04:36:19;1.50;;;1.13;;
75787;SDS011;64406;50.024;14.492;2023-03-11T04:38:44;1.87;;;1.10;;
75787;SDS011;64406;50.024;14.492;2023-03-11T04:41:11;2.67;;;1.23;;
75787;SDS011;64406;50.024;14.492;2023-03-11T04:43:36;0.97;;;0.90;;
75787;SDS011;64406;50.024;14.492;2023-03-11T04:46:02;1.37;;;1.10;;
75787;SDS011;64406;50.024;14.492;2023-03-11T04:48:29;1.00;;;0.87;;
75787;SDS011;64406;50.024;14.492;2023-03-11T04:50:55;2.97;;;1.27;;
75787;SDS011;64406;50.024;14.492;2023-03-11T04:53:21;1.10;;;1.00;;
75787;SDS011;64406;50.024;14.492;2023-03-11T04:55:47;1.30;;;1.10;;
75787;SDS011;64406;50.024;14.492;2023-03-11T04:58:13;1.87;;;1.20;;
75787;SDS011;64406;50.024;14.492;2023-03-11T05:00:38;1.40;;;1.27;;
75787;SDS011;64406;50.024;14.492;2023-03-11T05:03:05;1.13;;;0.87;;
75787;SDS011;64406;50.024;14.492;2023-03-11T05:05:31;1.07;;;0.87;;
75787;SDS011;64406;50.024;14.492;2023-03-11T05:07:56;1.40;;;1.23;;
75787;SDS011;64406;50.024;14.492;2023-03-11T05:10:22;1.47;;;0.97;;
75787;SDS011;64406;50.024;14.492;2023-03-11T05:12:51;1.70;;;1.20;;
75787;SDS011;64406;50.024;14.492;2023-03-11T05:15:17;1.20;;;1.10;;
75787;SDS011;64406;50.024;14.492;2023-03-11T05:17:43;1.10;;;1.00;;
75787;SDS011;64406;50.024;14.492;2023-03-11T05:20:09;1.47;;;1.10;;
75787;SDS011;64406;50.024;14.492;2023-03-11T05:22:35;1.20;;;1.10;;
75787;SDS011;64406;50.024;14.492;2023-03-11T05:25:01;2.23;;;1.10;;
75787;SDS011;64406;50.024;14.492;2023-03-11T05:27:27;2.07;;;1.37;;
75787;SDS011;64406;50.024;14.492;2023-03-11T05:29:52;2.03;;;1.37;;
75787;SDS011;64406;50.024;14.492;2023-03-11T05:32:18;1.00;;;0.90;;
75787;SDS011;64406;50.024;14.492;2023-03-11T05:34:44;1.67;;;1.23;;
75787;SDS011;64406;50.024;14.492;2023-03-11T05:37:10;1.63;;;1.53;;
75787;SDS011;64406;50.024;14.492;2023-03-11T05:39:39;2.53;;;1.30;;
75787;SDS011;64406;50.024;14.492;2023-03-11T05:42:05;1.30;;;1.20;;
75787;SDS011;64406;50.024;14.492;2023-03-11T05:44:32;2.43;;;1.40;;
75787;SDS011;64406;50.024;14.492;2023-03-11T05:46:58;1.33;;;0.87;;
75787;SDS011;64406;50.024;14.492;2023-03-11T05:49:24;1.23;;;1.00;;
75787;SDS011;64406;50.024;14.492;2023-03-11T05:51:50;2.07;;;1.20;;
75787;SDS011;64406;50.024;14.492;2023-03-11T05:54:16;1.43;;;1.27;;
75787;SDS011;64406;50.024;14.492;2023-03-11T05:56:43;2.07;;;1.40;;
75787;SDS011;64406;50.024;14.492;2023-03-11T05:59:11;2.30;;;1.33;;
75787;SDS011;64406;50.024;14.492;2023-03-11T06:01:38;2.13;;;1.30;;
75787;SDS011;64406;50.024;14.492;2023-03-11T06:04:05;2.50;;;1.60;;
75787;SDS011;64406;50.024;14.492;2023-03-11T06:06:31;1.13;;;0.90;;
75787;SDS011;64406;50.024;14.492;2023-03-11T06:08:58;2.27;;;1.30;;
75787;SDS011;64406;50.024;14.492;2023-03-11T06:11:24;1.80;;;0.97;;
75787;SDS011;64406;50.024;14.492;2023-03-11T06:13:51;1.50;;;1.10;;
75787;SDS011;64406;50.024;14.492;2023-03-11T06:16:21;1.43;;;1.20;;
75787;SDS011;64406;50.024;14.492;2023-03-11T06:18:48;1.83;;;1.20;;
75787;SDS011;64406;50.024;14.492;2023-03-11T06:21:15;1.00;;;0.80;;
75787;SDS011;64406;50.024;14.492;2023-03-11T06:23:42;1.50;;;1.00;;
75787;SDS011;64406;50.024;14.492;2023-03-11T06:26:08;1.77;;;1.40;;
75787;SDS011;64406;50.024;14.492;2023-03-11T06:28:37;1.33;;;1.00;;
75787;SDS011;64406;50.024;14.492;2023-03-11T06:31:07;1.87;;;1.20;;
75787;SDS011;64406;50.024;14.492;2023-03-11T06:33:39;1.00;;;0.90;;
75787;SDS011;64406;50.024;14.492;2023-03-11T06:36:05;1.33;;;1.00;;
75787;SDS011;64406;50.024;14.492;2023-03-11T06:38:32;1.13;;;1.03;;
75787;SDS011;64406;50.024;14.492;2023-03-11T06:40:58;0.80;;;0.80;;
75787;SDS011;64406;50.024;14.492;2023-03-11T06:43:28;1.60;;;0.90;;
75787;SDS011;64406;50.024;14.492;2023-03-11T06:45:55;0.97;;;0.87;;
75787;SDS011;64406;50.024;14.492;2023-03-11T06:48:21;2.70;;;0.73;;
75787;SDS011;64406;50.024;14.492;2023-03-11T06:50:57;1.70;;;1.10;;
75787;SDS011;64406;50.024;14.492;2023-03-11T06:53:27;2.07;;;1.40;;
75787;SDS011;64406;50.024;14.492;2023-03-11T06:56:04;1.57;;;1.20;;
75787;SDS011;64406;50.024;14.492;2023-03-11T06:58:36;1.90;;;0.80;;
75787;SDS011;64406;50.024;14.492;2023-03-11T07:01:04;1.37;;;0.90;;
75787;SDS011;64406;50.024;14.492;2023-03-11T07:03:31;0.80;;;0.80;;
75787;SDS011;64406;50.024;14.492;2023-03-11T07:05:57;1.17;;;0.70;;
75787;SDS011;64406;50.024;14.492;2023-03-11T07:08:24;1.20;;;0.70;;
75787;SDS011;64406;50.024;14.492;2023-03-11T07:11:00;0.93;;;0.90;;
75787;SDS011;64406;50.024;14.492;2023-03-11T07:13:31;1.30;;;0.90;;
75787;SDS011;64406;50.024;14.492;2023-03-11T07:16:07;0.70;;;0.60;;
75787;SDS011;64406;50.024;14.492;2023-03-11T07:18:59;0.93;;;0.70;;
75787;SDS011;64406;50.024;14.492;2023-03-11T07:21:28;0.80;;;0.67;;
75787;SDS011;64406;50.024;14.492;2023-03-11T07:23:56;1.23;;;0.67;;
75787;SDS011;64406;50.024;14.492;2023-03-11T07:26:24;1.13;;;1.03;;
75787;SDS011;64406;50.024;14.492;2023-03-11T07:28:55;1.00;;;0.90;;
75787;SDS011;64406;50.024;14.492;2023-03-11T07:31:25;1.20;;;0.90;;
75787;SDS011;64406;50.024;14.492;2023-03-11T07:33:56;1.17;;;1.00;;
75787;SDS011;64406;50.024;14.492;2023-03-11T07:36:24;1.20;;;1.10;;
75787;SDS011;64406;50.024;14.492;2023-03-11T07:38:55;1.80;;;1.57;;
75787;SDS011;64406;50.024;14.492;2023-03-11T07:41:23;1.37;;;1.10;;
75787;SDS011;64406;50.024;14.492;2023-03-11T07:43:52;1.03;;;0.93;;
75787;SDS011;64406;50.024;14.492;2023-03-11T07:46:19;1.73;;;1.43;;
75787;SDS011;64406;50.024;14.492;2023-03-11T07:48:47;1.60;;;1.20;;
75787;SDS011;64406;50.024;14.492;2023-03-11T07:51:15;1.13;;;1.03;;
75787;SDS011;64406;50.024;14.492;2023-03-11T07:53:50;1.67;;;1.30;;
75787;SDS011;64406;50.024;14.492;2023-03-11T07:56:17;1.90;;;1.40;;
75787;SDS011;64406;50.024;14.492;2023-03-11T07:58:47;1.90;;;1.40;;
75787;SDS011;64406;50.024;14.492;2023-03-11T08:01:16;1.90;;;1.30;;
75787;SDS011;64406;50.024;14.492;2023-03-11T08:03:45;1.50;;;1.17;;
75787;SDS011;64406;50.024;14.492;2023-03-11T08:06:21;8.30;;;1.23;;
75787;SDS011;64406;50.024;14.492;2023-03-11T08:08:48;1.63;;;1.47;;
75787;SDS011;64406;50.024;14.492;2023-03-11T08:11:17;1.53;;;1.40;;
75787;SDS011;64406;50.024;14.492;2023-03-11T08:13:46;3.93;;;1.40;;
75787;SDS011;64406;50.024;14.492;2023-03-11T08:16:16;3.03;;;1.30;;
75787;SDS011;64406;50.024;14.492;2023-03-11T08:18:43;1.47;;;1.30;;
75787;SDS011;64406;50.024;14.492;2023-03-11T08:21:12;2.77;;;1.53;;
75787;SDS011;64406;50.024;14.492;2023-03-11T08:23:48;1.87;;;1.20;;
75787;SDS011;64406;50.024;14.492;2023-03-11T08:26:15;2.03;;;1.33;;
75787;SDS011;64406;50.024;14.492;2023-03-11T08:28:45;1.73;;;1.30;;
75787;SDS011;64406;50.024;14.492;2023-03-11T08:31:13;1.80;;;1.40;;
75787;SDS011;64406;50.024;14.492;2023-03-11T08:33:43;2.70;;;1.57;;
75787;SDS011;64406;50.024;14.492;2023-03-11T08:36:10;2.27;;;1.30;;
75787;SDS011;64406;50.024;14.492;2023-03-11T08:38:36;1.93;;;1.30;;
75787;SDS011;64406;50.024;14.492;2023-03-11T08:41:02;2.13;;;1.33;;
75787;SDS011;64406;50.024;14.492;2023-03-11T08:43:28;1.67;;;1.10;;
75787;SDS011;64406;50.024;14.492;2023-03-11T08:45:53;1.65;;;1.20;;
75787;SDS011;64406;50.024;14.492;2023-03-11T08:48:20;2.60;;;1.30;;
75787;SDS011;64406;50.024;14.492;2023-03-11T08:50:47;1.77;;;1.43;;
75787;SDS011;64406;50.024;14.492;2023-03-11T08:53:13;3.83;;;1.73;;
75787;SDS011;64406;50.024;14.492;2023-03-11T08:55:39;1.43;;;1.20;;
75787;SDS011;64406;50.024;14.492;2023-03-11T08:58:04;2.60;;;1.50;;
75787;SDS011;64406;50.024;14.492;2023-03-11T09:00:30;1.70;;;1.10;;
75787;SDS011;64406;50.024;14.492;2023-03-11T09:03:00;2.57;;;1.73;;
75787;SDS011;64406;50.024;14.492;2023-03-11T09:05:26;3.27;;;1.47;;
75787;SDS011;64406;50.024;14.492;2023-03-11T09:07:54;1.17;;;1.03;;
75787;SDS011;64406;50.024;14.492;2023-03-11T09:10:19;1.93;;;1.40;;
75787;SDS011;64406;50.024;14.492;2023-03-11T09:12:47;2.70;;;1.40;;
75787;SDS011;64406;50.024;14.492;2023-03-11T09:15:13;2.57;;;1.30;;
75787;SDS011;64406;50.024;14.492;2023-03-11T09:17:42;2.87;;;1.50;;
75787;SDS011;64406;50.024;14.492;2023-03-11T09:20:13;1.53;;;1.30;;
75787;SDS011;64406;50.024;14.492;2023-03-11T09:22:42;1.50;;;1.40;;
75787;SDS011;64406;50.024;14.492;2023-03-11T09:25:10;2.87;;;1.40;;
75787;SDS011;64406;50.024;14.492;2023-03-11T09:27:37;2.47;;;1.40;;
75787;SDS011;64406;50.024;14.492;2023-03-11T09:30:04;1.53;;;1.40;;
75787;SDS011;64406;50.024;14.492;2023-03-11T09:32:31;2.53;;;1.67;;
75787;SDS011;64406;50.024;14.492;2023-03-11T09:34:56;2.97;;;1.60;;
75787;SDS011;64406;50.024;14.492;2023-03-11T09:37:22;2.73;;;1.23;;
75787;SDS011;64406;50.024;14.492;2023-03-11T09:39:48;1.87;;;1.30;;
75787;SDS011;64406;50.024;14.492;2023-03-11T09:42:33;2.37;;;1.50;;
75787;SDS011;64406;50.024;14.492;2023-03-11T09:50:32;3.27;;;1.70;;
75787;SDS011;64406;50.024;14.492;2023-03-11T09:53:31;1.87;;;1.40;;
75787;SDS011;64406;50.024;14.492;2023-03-11T09:56:06;3.10;;;1.90;;
75787;SDS011;64406;50.024;14.492;2023-03-11T09:58:45;3.17;;;1.80;;
75787;SDS011;64406;50.024;14.492;2023-03-11T10:04:24;2.77;;;1.73;;
75787;SDS011;64406;50.024;14.492;2023-03-11T10:06:54;4.43;;;1.83;;
75787;SDS011;64406;50.024;14.492;2023-03-11T10:20:21;2.63;;;1.80;;
75787;SDS011;64406;50.024;14.492;2023-03-11T10:25:21;3.07;;;1.90;;
75787;SDS011;64406;50.024;14.492;2023-03-11T10:27:53;3.53;;;2.10;;
75787;SDS011;64406;50.024;14.492;2023-03-11T10:30:27;2.97;;;2.43;;
75787;SDS011;64406;50.024;14.492;2023-03-11T10:36:15;3.70;;;1.90;;
75787;SDS011;64406;50.024;14.492;2023-03-11T10:38:48;3.27;;;2.40;;
75787;SDS011;64406;50.024;14.492;2023-03-11T10:41:22;2.17;;;1.90;;
75787;SDS011;64406;50.024;14.492;2023-03-11T10:44:05;3.53;;;2.40;;
75787;SDS011;64406;50.024;14.492;2023-03-11T10:46:36;4.07;;;1.83;;
75787;SDS011;64406;50.024;14.492;2023-03-11T10:49:04;3.50;;;2.17;;
75787;SDS011;64406;50.024;14.492;2023-03-11T10:51:39;2.67;;;2.27;;
75787;SDS011;64406;50.024;14.492;2023-03-11T10:54:06;2.50;;;1.80;;
75787;SDS011;64406;50.024;14.492;2023-03-11T10:56:34;3.00;;;2.10;;
75787;SDS011;64406;50.024;14.492;2023-03-11T10:59:17;3.45;;;2.10;;
75787;SDS011;64406;50.024;14.492;2023-03-11T11:01:55;2.57;;;2.13;;
75787;SDS011;64406;50.024;14.492;2023-03-11T11:04:30;3.00;;;1.97;;
75787;SDS011;64406;50.024;14.492;2023-03-11T11:07:43;2.77;;;1.93;;
75787;SDS011;64406;50.024;14.492;2023-03-11T11:10:48;3.03;;;1.60;;
75787;SDS011;64406;50.024;14.492;2023-03-11T11:12:55;2.90;;;1.83;;
75787;SDS011;64406;50.024;14.492;2023-03-11T11:17:56;2.33;;;1.87;;
75787;SDS011;64406;50.024;14.492;2023-03-11T11:20:24;4.43;;;2.10;;
75787;SDS011;64406;50.024;14.492;2023-03-11T11:22:52;2.73;;;2.07;;
75787;SDS011;64406;50.024;14.492;2023-03-11T11:25:24;1.80;;;1.50;;
75787;SDS011;64406;50.024;14.492;2023-03-11T11:28:26;3.45;;;2.17;;
75787;SDS011;64406;50.024;14.492;2023-03-11T11:30:51;2.17;;;1.73;;
75787;SDS011;64406;50.024;14.492;2023-03-11T11:33:26;2.87;;;1.90;;
75787;SDS011;64406;50.024;14.492;2023-03-11T11:36:01;2.57;;;1.73;;
75787;SDS011;64406;50.024;14.492;2023-03-11T11:38:29;2.60;;;1.47;;
75787;SDS011;64406;50.024;14.492;2023-03-11T11:40:57;2.37;;;2.03;;
75787;SDS011;64406;50.024;14.492;2023-03-11T11:43:31;1.97;;;1.77;;
75787;SDS011;64406;50.024;14.492;2023-03-11T11:46:09;3.20;;;2.07;;
75787;SDS011;64406;50.024;14.492;2023-03-11T11:51:24;4.07;;;1.90;;
75787;SDS011;64406;50.024;14.492;2023-03-11T11:54:12;2.10;;;1.57;;
75787;SDS011;64406;50.024;14.492;2023-03-11T11:56:42;3.23;;;2.27;;
75787;SDS011;64406;50.024;14.492;2023-03-11T11:59:19;3.67;;;2.20;;
75787;SDS011;64406;50.024;14.492;2023-03-11T12:01:51;3.53;;;2.30;;
75787;SDS011;64406;50.024;14.492;2023-03-11T12:15:22;4.87;;;3.00;;
75787;SDS011;64406;50.024;14.492;2023-03-11T12:17:49;3.33;;;2.33;;
75787;SDS011;64406;50.024;14.492;2023-03-11T12:20:32;5.10;;;2.77;;
75787;SDS011;64406;50.024;14.492;2023-03-11T12:30:46;4.90;;;2.87;;
75787;SDS011;64406;50.024;14.492;2023-03-11T12:33:30;4.03;;;2.70;;
75787;SDS011;64406;50.024;14.492;2023-03-11T12:36:02;3.57;;;2.33;;
75787;SDS011;64406;50.024;14.492;2023-03-11T12:46:07;2.73;;;2.00;;
75787;SDS011;64406;50.024;14.492;2023-03-11T12:48:48;4.47;;;2.60;;
75787;SDS011;64406;50.024;14.492;2023-03-11T12:53:50;3.93;;;2.30;;
75787;SDS011;64406;50.024;14.492;2023-03-11T12:59:08;4.27;;;2.87;;
75787;SDS011;64406;50.024;14.492;2023-03-11T13:06:56;5.30;;;2.80;;
75787;SDS011;64406;50.024;14.492;2023-03-11T13:09:25;4.77;;;2.60;;
75787;SDS011;64406;50.024;14.492;2023-03-11T13:11:51;4.83;;;2.57;;
75787;SDS011;64406;50.024;14.492;2023-03-11T13:14:32;6.73;;;2.47;;
75787;SDS011;64406;50.024;14.492;2023-03-11T13:19:47;3.93;;;2.70;;
75787;SDS011;64406;50.024;14.492;2023-03-11T13:28:44;3.70;;;2.50;;
75787;SDS011;64406;50.024;14.492;2023-03-11T13:33:44;4.30;;;3.00;;
75787;SDS011;64406;50.024;14.492;2023-03-11T13:41:57;7.65;;;2.60;;
75787;SDS011;64406;50.024;14.492;2023-03-11T13:44:36;2.67;;;2.17;;
75787;SDS011;64406;50.024;14.492;2023-03-11T13:47:14;4.10;;;2.80;;
75787;SDS011;64406;50.024;14.492;2023-03-11T13:49:58;4.13;;;2.90;;
75787;SDS011;64406;50.024;14.492;2023-03-11T13:52:37;4.13;;;2.60;;
75787;SDS011;64406;50.024;14.492;2023-03-11T13:57:48;4.17;;;2.63;;
75787;SDS011;64406;50.024;14.492;2023-03-11T14:00:25;4.87;;;3.07;;
75787;SDS011;64406;50.024;14.492;2023-03-11T14:02:54;5.00;;;2.83;;
75787;SDS011;64406;50.024;14.492;2023-03-11T14:10:55;4.10;;;2.90;;
75787;SDS011;64406;50.024;14.492;2023-03-11T14:13:21;5.77;;;3.10;;
75787;SDS011;64406;50.024;14.492;2023-03-11T14:20:55;4.17;;;3.03;;
75787;SDS011;64406;50.024;14.492;2023-03-11T14:23:21;7.27;;;3.70;;
75787;SDS011;64406;50.024;14.492;2023-03-11T14:26:05;5.43;;;3.23;;
75787;SDS011;64406;50.024;14.492;2023-03-11T14:28:35;5.30;;;3.00;;
75787;SDS011;64406;50.024;14.492;2023-03-11T14:31:03;4.43;;;3.53;;
75787;SDS011;64406;50.024;14.492;2023-03-11T14:33:29;5.60;;;3.53;;
75787;SDS011;64406;50.024;14.492;2023-03-11T14:36:01;4.83;;;2.60;;
75787;SDS011;64406;50.024;14.492;2023-03-11T14:38:29;4.57;;;3.47;;
75787;SDS011;64406;50.024;14.492;2023-03-11T14:41:02;10.10;;;3.63;;
75787;SDS011;64406;50.024;14.492;2023-03-11T14:43:34;3.58;;;2.92;;
75787;SDS011;64406;50.024;14.492;2023-03-11T14:46:06;4.50;;;2.33;;
75787;SDS011;64406;50.024;14.492;2023-03-11T14:48:35;3.83;;;2.27;;
75787;SDS011;64406;50.024;14.492;2023-03-11T14:51:03;3.90;;;2.80;;
75787;SDS011;64406;50.024;14.492;2023-03-11T14:53:42;3.20;;;2.33;;
75787;SDS011;64406;50.024;14.492;2023-03-11T14:56:15;4.73;;;3.07;;
75787;SDS011;64406;50.024;14.492;2023-03-11T14:58:46;4.00;;;2.67;;
75787;SDS011;64406;50.024;14.492;2023-03-11T15:01:19;4.00;;;2.90;;
75787;SDS011;64406;50.024;14.492;2023-03-11T15:03:52;4.20;;;3.10;;
75787;SDS011;64406;50.024;14.492;2023-03-11T15:06:23;3.80;;;2.60;;
75787;SDS011;64406;50.024;14.492;2023-03-11T15:11:24;4.77;;;3.40;;
75787;SDS011;64406;50.024;14.492;2023-03-11T15:13:52;6.00;;;3.50;;
75787;SDS011;64406;50.024;14.492;2023-03-11T15:16:33;5.27;;;3.27;;
75787;SDS011;64406;50.024;14.492;2023-03-11T15:19:01;6.03;;;3.97;;
75787;SDS011;64406;50.024;14.492;2023-03-11T15:22:03;4.60;;;2.73;;
75787;SDS011;64406;50.024;14.492;2023-03-11T15:24:48;6.33;;;3.13;;
75787;SDS011;64406;50.024;14.492;2023-03-11T15:27:35;8.37;;;3.77;;
75787;SDS011;64406;50.024;14.492;2023-03-11T15:30:04;4.50;;;2.90;;
75787;SDS011;64406;50.024;14.492;2023-03-11T15:32:50;5.78;;;3.22;;
75787;SDS011;64406;50.024;14.492;2023-03-11T15:35:18;5.33;;;3.03;;
75787;SDS011;64406;50.024;14.492;2023-03-11T15:37:45;3.00;;;2.25;;
75787;SDS011;64406;50.024;14.492;2023-03-11T15:40:23;4.53;;;3.00;;
75787;SDS011;64406;50.024;14.492;2023-03-11T15:45:39;5.75;;;3.47;;
75787;SDS011;64406;50.024;14.492;2023-03-11T15:48:05;4.80;;;2.65;;
75787;SDS011;64406;50.024;14.492;2023-03-11T15:50:32;5.17;;;2.77;;
75787;SDS011;64406;50.024;14.492;2023-03-11T15:52:58;4.40;;;2.90;;
75787;SDS011;64406;50.024;14.492;2023-03-11T15:55:25;5.90;;;3.13;;
75787;SDS011;64406;50.024;14.492;2023-03-11T15:57:54;4.07;;;2.80;;
75787;SDS011;64406;50.024;14.492;2023-03-11T16:00:25;5.05;;;3.20;;
75787;SDS011;64406;50.024;14.492;2023-03-11T16:02:50;5.13;;;3.10;;
75787;SDS011;64406;50.024;14.492;2023-03-11T16:05:19;5.60;;;2.90;;
75787;SDS011;64406;50.024;14.492;2023-03-11T16:07:47;5.30;;;3.57;;
75787;SDS011;64406;50.024;14.492;2023-03-11T16:10:15;4.97;;;3.00;;
75787;SDS011;64406;50.024;14.492;2023-03-11T16:12:44;3.63;;;2.60;;
75787;SDS011;64406;50.024;14.492;2023-03-11T16:15:17;5.83;;;3.60;;
75787;SDS011;64406;50.024;14.492;2023-03-11T16:17:51;5.63;;;3.00;;
75787;SDS011;64406;50.024;14.492;2023-03-11T16:20:18;5.73;;;3.87;;
75787;SDS011;64406;50.024;14.492;2023-03-11T16:22:45;5.20;;;2.63;;
75787;SDS011;64406;50.024;14.492;2023-03-11T16:25:23;4.23;;;2.70;;
75787;SDS011;64406;50.024;14.492;2023-03-11T16:27:52;3.97;;;2.77;;
75787;SDS011;64406;50.024;14.492;2023-03-11T16:30:21;4.30;;;2.70;;
75787;SDS011;64406;50.024;14.492;2023-03-11T16:32:48;6.40;;;2.97;;
75787;SDS011;64406;50.024;14.492;2023-03-11T16:35:13;5.00;;;2.70;;
75787;SDS011;64406;50.024;14.492;2023-03-11T16:37:40;5.60;;;3.13;;
75787;SDS011;64406;50.024;14.492;2023-03-11T16:40:10;4.07;;;2.67;;